createdAt,value
2022-08-31T00:00:13.190Z,2.45
2022-08-31T00:02:59.609Z,2.20
2022-08-31T00:05:27.627Z,2.83
2022-08-31T00:07:55.987Z,2.60
2022-08-31T00:10:31.847Z,2.40
2022-08-31T00:13:01.418Z,2.50
2022-08-31T00:15:31.281Z,2.42
2022-08-31T00:17:59.194Z,2.60
2022-08-31T00:20:34.041Z,2.37
2022-08-31T00:23:07.047Z,2.37
2022-08-31T00:25:35.541Z,2.90
2022-08-31T00:28:03.959Z,2.25
2022-08-31T00:30:32.049Z,2.35
2022-08-31T00:32:59.993Z,2.05
2022-08-31T00:35:28.720Z,2.10
2022-08-31T00:37:56.695Z,2.45
2022-08-31T00:40:24.819Z,2.40
2022-08-31T00:42:52.676Z,2.40
2022-08-31T00:45:20.679Z,2.65
2022-08-31T00:47:48.573Z,2.78
2022-08-31T00:50:18.277Z,2.65
2022-08-31T00:52:49.251Z,2.90
2022-08-31T00:55:18.135Z,2.72
2022-08-31T00:57:47.336Z,2.55
2022-08-31T01:00:17.831Z,2.85
2022-08-31T01:02:45.889Z,2.65
2022-08-31T01:05:13.953Z,2.22
2022-08-31T01:07:41.923Z,2.33
2022-08-31T01:10:10.129Z,2.55
2022-08-31T01:12:37.973Z,2.53
2022-08-31T01:15:07.604Z,2.92
2022-08-31T01:17:36.076Z,2.70
2022-08-31T01:20:13.041Z,3.30
2022-08-31T01:23:04.067Z,2.70
2022-08-31T01:25:33.556Z,2.78
2022-08-31T01:28:02.406Z,3.10
2022-08-31T01:30:30.283Z,2.67
2022-08-31T01:32:58.104Z,3.10
2022-08-31T01:35:26.102Z,2.78
2022-08-31T01:37:53.966Z,2.50
2022-08-31T01:40:21.931Z,2.70
2022-08-31T01:42:49.797Z,2.55
2022-08-31T01:45:18.573Z,2.80
2022-08-31T01:47:46.437Z,2.40
2022-08-31T01:50:14.366Z,2.70
2022-08-31T01:52:42.234Z,2.67
2022-08-31T01:55:10.407Z,2.75
2022-08-31T01:57:40.973Z,2.78
2022-08-31T02:00:10.025Z,2.35
2022-08-31T02:02:37.899Z,2.30
2022-08-31T02:05:06.822Z,2.60
2022-08-31T02:07:34.781Z,2.67
2022-08-31T02:10:02.614Z,2.22
2022-08-31T02:12:30.455Z,2.40
2022-08-31T02:14:58.270Z,2.78
2022-08-31T02:17:26.159Z,2.50
2022-08-31T02:19:53.985Z,2.58
2022-08-31T02:22:21.848Z,2.62
2022-08-31T02:24:49.633Z,2.67
2022-08-31T02:27:17.567Z,3.00
2022-08-31T02:29:45.400Z,2.80
2022-08-31T02:32:20.051Z,2.95
2022-08-31T02:34:49.457Z,2.70
2022-08-31T02:37:17.744Z,2.92
2022-08-31T02:39:48.779Z,3.00
2022-08-31T02:42:18.441Z,2.97
2022-08-31T02:44:46.624Z,2.95
2022-08-31T02:47:14.503Z,2.85
2022-08-31T02:49:42.318Z,3.10
2022-08-31T02:52:10.200Z,2.72
2022-08-31T02:54:38.107Z,3.05
2022-08-31T02:57:06.136Z,3.10
2022-08-31T02:59:33.998Z,2.40
2022-08-31T03:02:02.185Z,2.72
2022-08-31T03:04:31.180Z,2.65
2022-08-31T03:06:59.224Z,2.53
2022-08-31T03:09:27.070Z,2.67
2022-08-31T03:11:54.949Z,3.33
2022-08-31T03:14:22.779Z,3.22
2022-08-31T03:16:51.937Z,2.47
2022-08-31T03:19:20.741Z,3.10
2022-08-31T03:21:48.706Z,3.20
2022-08-31T03:24:27.204Z,2.85
2022-08-31T03:26:56.109Z,3.28
2022-08-31T03:29:24.058Z,2.85
2022-08-31T03:31:51.934Z,3.10
2022-08-31T03:34:19.789Z,2.70
2022-08-31T03:36:47.580Z,2.50
2022-08-31T03:39:15.336Z,2.92
2022-08-31T03:41:43.091Z,2.80
2022-08-31T03:44:10.862Z,2.60
2022-08-31T03:46:38.857Z,2.40
2022-08-31T03:49:07.408Z,2.45
2022-08-31T03:51:35.174Z,2.35
2022-08-31T03:54:02.970Z,2.40
2022-08-31T03:56:30.710Z,2.37
2022-08-31T03:58:58.540Z,2.75
2022-08-31T04:01:26.324Z,2.47
2022-08-31T04:03:54.092Z,2.92
2022-08-31T04:06:21.948Z,2.83
2022-08-31T04:08:49.717Z,3.00
2022-08-31T04:11:19.821Z,3.30
2022-08-31T04:13:57.731Z,3.35
2022-08-31T04:16:25.613Z,3.03
2022-08-31T04:18:53.497Z,3.15
2022-08-31T04:21:23.055Z,3.15
2022-08-31T04:23:51.101Z,3.55
2022-08-31T04:26:30.230Z,3.25
2022-08-31T04:28:58.673Z,3.60
2022-08-31T04:31:26.797Z,3.80
2022-08-31T04:33:54.853Z,3.58
2022-08-31T04:36:24.233Z,3.62
2022-08-31T04:38:53.114Z,3.33
2022-08-31T04:41:22.292Z,3.20
2022-08-31T04:43:52.740Z,3.75
2022-08-31T04:46:20.728Z,3.62
2022-08-31T04:48:48.676Z,3.85
2022-08-31T04:51:18.979Z,3.55
2022-08-31T04:53:46.794Z,3.85
2022-08-31T04:56:17.300Z,3.75
2022-08-31T04:58:46.627Z,4.35
2022-08-31T05:01:16.202Z,4.15
2022-08-31T05:03:45.040Z,4.05
2022-08-31T05:06:17.130Z,4.32
2022-08-31T05:08:45.023Z,3.92
2022-08-31T05:11:19.841Z,3.95
2022-08-31T05:13:49.863Z,3.60
2022-08-31T05:16:18.145Z,3.80
2022-08-31T05:18:46.765Z,4.22
2022-08-31T05:21:20.982Z,4.10
2022-08-31T05:23:49.771Z,4.12
2022-08-31T05:26:22.461Z,3.97
2022-08-31T05:28:52.697Z,4.28
2022-08-31T05:31:21.048Z,4.07
2022-08-31T05:33:48.908Z,4.03
2022-08-31T05:36:16.855Z,4.00
2022-08-31T05:38:44.670Z,4.35
2022-08-31T05:41:12.459Z,4.32
2022-08-31T05:43:40.442Z,4.80
2022-08-31T05:46:11.939Z,4.78
2022-08-31T05:48:39.704Z,4.10
2022-08-31T05:51:11.439Z,4.72
2022-08-31T05:53:40.899Z,4.12
2022-08-31T05:56:19.146Z,4.75
2022-08-31T05:58:47.511Z,4.15
2022-08-31T06:01:17.272Z,4.28
2022-08-31T06:03:45.171Z,4.25
2022-08-31T06:06:13.573Z,4.15
2022-08-31T06:08:41.427Z,4.35
2022-08-31T06:11:14.754Z,4.22
2022-08-31T06:13:43.033Z,4.30
2022-08-31T06:16:11.153Z,4.30
2022-08-31T06:18:51.905Z,3.80
2022-08-31T06:21:49.976Z,4.37
2022-08-31T06:24:18.973Z,4.15
2022-08-31T06:26:57.371Z,3.95
2022-08-31T06:29:26.276Z,3.83
2022-08-31T06:31:54.207Z,3.65
2022-08-31T06:34:22.406Z,3.67
2022-08-31T06:36:50.477Z,3.45
2022-08-31T06:39:18.777Z,3.80
2022-08-31T06:41:46.576Z,3.45
2022-08-31T06:44:15.041Z,3.25
2022-08-31T06:46:47.476Z,3.75
2022-08-31T06:49:15.781Z,3.53
2022-08-31T06:51:43.917Z,3.65
2022-08-31T06:54:30.173Z,3.35
2022-08-31T06:57:03.790Z,3.45
2022-08-31T07:01:05.861Z,3.30
2022-08-31T07:03:35.787Z,2.70
2022-08-31T07:06:12.928Z,3.00
2022-08-31T07:08:41.359Z,3.45
2022-08-31T07:11:18.098Z,3.25
2022-08-31T07:13:45.945Z,3.15
2022-08-31T07:16:15.249Z,3.25
2022-08-31T07:18:43.328Z,3.15
2022-08-31T07:21:14.384Z,3.00
2022-08-31T07:23:42.302Z,2.72
2022-08-31T07:26:12.095Z,3.08
2022-08-31T07:28:39.937Z,3.22
2022-08-31T07:31:07.885Z,3.35
2022-08-31T07:36:13.201Z,3.60
2022-08-31T07:38:59.651Z,3.72
2022-08-31T07:41:57.633Z,3.33
2022-08-31T07:44:25.918Z,3.58
2022-08-31T07:46:56.550Z,3.60
2022-08-31T07:49:24.555Z,3.70
2022-08-31T07:51:52.669Z,3.75
2022-08-31T07:54:25.580Z,3.87
2022-08-31T07:57:06.988Z,3.83
2022-08-31T07:59:36.375Z,3.62
2022-08-31T08:02:07.175Z,4.25
2022-08-31T08:04:40.459Z,4.25
2022-08-31T08:07:09.635Z,3.92
2022-08-31T08:09:39.108Z,4.30
2022-08-31T08:12:08.056Z,4.22
2022-08-31T08:14:41.017Z,3.70
2022-08-31T08:17:09.471Z,8.15
2022-08-31T08:19:38.484Z,4.68
2022-08-31T08:22:07.395Z,3.75
2022-08-31T08:24:36.039Z,5.10
2022-08-31T08:27:04.506Z,4.07
2022-08-31T08:29:33.619Z,3.95
2022-08-31T08:32:01.822Z,4.05
2022-08-31T08:34:32.484Z,3.78
2022-08-31T08:37:01.144Z,3.78
2022-08-31T08:39:29.228Z,3.65
2022-08-31T08:41:57.948Z,4.12
2022-08-31T08:44:28.746Z,4.25
2022-08-31T08:47:00.665Z,4.05
2022-08-31T08:49:45.039Z,4.45
2022-08-31T08:52:31.437Z,4.35
2022-08-31T08:55:04.566Z,4.62
2022-08-31T08:57:36.628Z,4.72
2022-08-31T09:00:22.650Z,4.50
2022-08-31T09:02:59.485Z,4.30
2022-08-31T09:05:36.503Z,4.22
2022-08-31T09:08:17.380Z,3.83
2022-08-31T09:10:59.600Z,3.95
2022-08-31T09:13:54.334Z,5.05
2022-08-31T09:16:42.199Z,4.22
2022-08-31T09:19:13.118Z,5.00
2022-08-31T09:21:47.718Z,4.20
2022-08-31T09:24:28.804Z,4.43
2022-08-31T09:27:21.066Z,4.03
2022-08-31T09:29:54.350Z,4.05
2022-08-31T09:32:28.648Z,3.70
2022-08-31T09:35:02.857Z,4.18
2022-08-31T09:37:36.570Z,3.80
2022-08-31T09:40:23.630Z,3.72
2022-08-31T09:43:13.928Z,3.00
2022-08-31T09:46:08.628Z,3.30
2022-08-31T09:48:52.766Z,3.62
2022-08-31T09:51:29.609Z,3.42
2022-08-31T09:54:26.270Z,4.10
2022-08-31T09:56:59.030Z,3.65
2022-08-31T09:59:50.584Z,3.30
2022-08-31T10:02:25.955Z,8.52
2022-08-31T10:04:56.607Z,2.95
2022-08-31T10:07:46.701Z,3.33
2022-08-31T10:10:30.974Z,2.58
2022-08-31T10:13:09.988Z,3.00
2022-08-31T10:15:53.965Z,3.33
2022-08-31T10:18:24.064Z,3.10
2022-08-31T10:20:58.127Z,4.07
2022-08-31T10:23:38.167Z,4.80
2022-08-31T10:26:32.860Z,4.45
2022-08-31T10:29:02.564Z,5.45
2022-08-31T10:31:35.353Z,5.78
2022-08-31T10:34:30.480Z,5.80
2022-08-31T10:37:06.717Z,4.60
2022-08-31T10:39:56.880Z,5.18
2022-08-31T10:42:31.431Z,5.22
2022-08-31T10:45:18.222Z,4.40
2022-08-31T10:47:50.552Z,5.03
2022-08-31T10:50:29.509Z,5.43
2022-08-31T10:53:12.357Z,4.60
2022-08-31T10:55:59.977Z,3.72
2022-08-31T10:58:56.655Z,4.85
2022-08-31T11:01:40.624Z,4.50
2022-08-31T11:04:35.772Z,4.68
2022-08-31T11:07:29.545Z,4.47
2022-08-31T11:10:00.482Z,4.32
2022-08-31T11:12:32.351Z,4.78
2022-08-31T11:15:23.654Z,4.43
2022-08-31T11:18:22.872Z,4.15
2022-08-31T11:21:30.183Z,4.05
2022-08-31T11:24:40.483Z,4.18
2022-08-31T11:27:20.421Z,4.32
2022-08-31T11:29:58.292Z,5.18
2022-08-31T11:32:48.840Z,4.60
2022-08-31T11:35:16.910Z,4.45
2022-08-31T11:37:54.093Z,4.07
2022-08-31T11:40:46.474Z,4.95
2022-08-31T11:43:40.436Z,4.43
2022-08-31T11:46:27.111Z,6.00
2022-08-31T11:48:56.143Z,5.00
2022-08-31T11:51:41.040Z,4.97
2022-08-31T11:54:34.437Z,4.00
2022-08-31T11:57:04.597Z,4.70
2022-08-31T11:59:40.328Z,5.03
2022-08-31T12:02:20.798Z,5.15
2022-08-31T12:04:53.327Z,4.78
2022-08-31T12:07:35.938Z,4.97
2022-08-31T12:10:27.528Z,5.35
2022-08-31T12:13:21.742Z,5.28
2022-08-31T12:16:19.254Z,5.30
2022-08-31T12:18:56.463Z,5.40
2022-08-31T12:21:57.650Z,5.15
2022-08-31T12:24:51.494Z,5.62
2022-08-31T12:27:41.502Z,5.95
2022-08-31T12:30:19.594Z,4.85
2022-08-31T12:32:47.654Z,5.22
2022-08-31T12:35:15.518Z,5.07
2022-08-31T12:37:43.796Z,4.93
2022-08-31T12:40:22.956Z,5.43
2022-08-31T12:43:18.747Z,4.93
2022-08-31T12:46:05.126Z,5.32
2022-08-31T12:48:48.001Z,5.40
2022-08-31T12:51:40.841Z,5.00
2022-08-31T12:54:10.853Z,5.40
2022-08-31T12:56:45.898Z,5.53
2022-08-31T12:59:59.406Z,5.07
2022-08-31T13:02:24.740Z,4.97
2022-08-31T13:04:53.092Z,5.47
2022-08-31T13:07:38.995Z,5.03
2022-08-31T13:10:11.119Z,5.00
2022-08-31T13:12:39.452Z,5.45
2022-08-31T13:15:13.583Z,5.32
2022-08-31T13:17:42.521Z,5.03
2022-08-31T13:20:10.801Z,4.80
2022-08-31T13:22:43.958Z,4.68
2022-08-31T13:25:33.045Z,5.15
2022-08-31T13:28:01.100Z,5.05
2022-08-31T13:30:29.526Z,4.45
2022-08-31T13:32:58.493Z,5.20
2022-08-31T13:35:27.345Z,4.85
2022-08-31T13:38:06.801Z,4.50
2022-08-31T13:40:39.037Z,5.45
2022-08-31T13:43:08.996Z,5.28
2022-08-31T13:45:41.905Z,5.60
2022-08-31T13:48:20.492Z,5.18
2022-08-31T13:50:54.883Z,4.62
2022-08-31T13:53:43.348Z,4.82
2022-08-31T13:56:47.882Z,4.90
2022-08-31T13:59:24.443Z,4.87
2022-08-31T14:01:57.044Z,4.90
2022-08-31T14:04:50.763Z,4.55
2022-08-31T14:07:32.477Z,5.03
2022-08-31T14:10:18.136Z,5.05
2022-08-31T14:12:53.480Z,4.65
2022-08-31T14:15:39.985Z,4.70
2022-08-31T14:18:25.805Z,4.57
2022-08-31T14:21:21.572Z,4.90
2022-08-31T14:24:03.418Z,4.72
2022-08-31T14:26:38.056Z,4.53
2022-08-31T14:29:11.265Z,4.70
2022-08-31T14:31:59.146Z,4.37
2022-08-31T14:34:33.451Z,5.53
2022-08-31T14:37:05.804Z,4.85
2022-08-31T14:39:36.299Z,4.85
2022-08-31T14:42:28.724Z,4.95
2022-08-31T14:45:30.404Z,4.95
2022-08-31T14:48:00.537Z,4.18
2022-08-31T14:50:28.741Z,5.05
2022-08-31T14:52:58.732Z,5.10
2022-08-31T14:55:27.602Z,5.32
2022-08-31T14:57:59.402Z,5.28
2022-08-31T15:00:30.266Z,5.78
2022-08-31T15:02:58.392Z,5.60
2022-08-31T15:05:26.986Z,6.18
2022-08-31T15:07:55.351Z,5.87
2022-08-31T15:10:26.281Z,5.40
2022-08-31T15:12:54.941Z,5.45
2022-08-31T15:15:23.196Z,7.03
2022-08-31T15:17:52.561Z,5.70
2022-08-31T15:20:21.315Z,6.00
2022-08-31T15:22:49.459Z,6.22
2022-08-31T15:25:18.232Z,6.35
2022-08-31T15:27:46.890Z,5.37
2022-08-31T15:30:17.084Z,6.53
2022-08-31T15:32:48.349Z,5.70
2022-08-31T15:35:21.251Z,6.20
2022-08-31T15:37:57.600Z,6.00
2022-08-31T15:40:28.962Z,6.07
2022-08-31T15:42:57.645Z,6.60
2022-08-31T15:45:29.639Z,5.80
2022-08-31T15:48:19.836Z,6.43
2022-08-31T15:50:52.212Z,5.95
2022-08-31T15:53:23.099Z,6.80
2022-08-31T15:55:51.020Z,6.25
2022-08-31T15:58:24.658Z,7.20
2022-08-31T16:00:52.979Z,5.93
2022-08-31T16:03:21.129Z,6.30
2022-08-31T16:05:49.896Z,6.00
2022-08-31T16:08:18.327Z,6.43
2022-08-31T16:10:47.490Z,6.47
2022-08-31T16:13:17.127Z,6.35
2022-08-31T16:15:52.619Z,6.30
2022-08-31T16:18:23.644Z,6.70
2022-08-31T16:20:53.140Z,6.55
2022-08-31T16:23:22.176Z,6.15
2022-08-31T16:25:50.104Z,6.25
2022-08-31T16:28:21.652Z,6.10
2022-08-31T16:30:55.865Z,6.20
2022-08-31T16:33:23.921Z,6.32
2022-08-31T16:35:53.228Z,6.55
2022-08-31T16:38:21.597Z,5.95
2022-08-31T16:40:50.147Z,5.90
2022-08-31T16:43:18.349Z,5.78
2022-08-31T16:45:46.538Z,5.68
2022-08-31T16:48:33.214Z,5.45
2022-08-31T16:51:03.055Z,5.72
2022-08-31T16:53:32.175Z,5.75
2022-08-31T16:56:01.108Z,5.70
2022-08-31T16:58:51.083Z,5.75
2022-08-31T17:01:23.287Z,5.90
2022-08-31T17:03:54.815Z,5.90
2022-08-31T17:06:26.297Z,5.35
2022-08-31T17:08:59.253Z,5.40
2022-08-31T17:11:33.943Z,5.12
2022-08-31T17:14:02.967Z,5.78
2022-08-31T17:16:36.005Z,5.30
2022-08-31T17:19:05.840Z,5.00
2022-08-31T17:21:35.492Z,5.30
2022-08-31T17:24:04.814Z,4.97
2022-08-31T17:26:35.301Z,5.22
2022-08-31T17:29:05.404Z,4.62
2022-08-31T17:31:36.202Z,5.68
2022-08-31T17:34:04.664Z,5.22
2022-08-31T17:36:37.526Z,5.40
2022-08-31T17:39:06.619Z,5.00
2022-08-31T17:41:34.793Z,5.47
2022-08-31T17:44:03.355Z,5.03
2022-08-31T17:46:31.980Z,5.68
2022-08-31T17:49:00.214Z,5.12
2022-08-31T17:51:30.768Z,5.65
2022-08-31T17:54:04.710Z,5.53
2022-08-31T17:56:38.499Z,4.90
2022-08-31T17:59:07.206Z,5.65
2022-08-31T18:01:37.168Z,5.32
2022-08-31T18:04:05.464Z,5.37
2022-08-31T18:06:37.973Z,5.35
2022-08-31T18:09:06.243Z,6.07
2022-08-31T18:11:35.111Z,7.57
2022-08-31T18:14:03.260Z,8.40
2022-08-31T18:16:31.781Z,6.68
2022-08-31T18:19:00.277Z,10.07
2022-08-31T18:21:28.516Z,7.15
2022-08-31T18:23:57.020Z,5.62
2022-08-31T18:26:30.016Z,6.80
2022-08-31T18:28:58.416Z,5.75
2022-08-31T18:31:34.452Z,5.50
2022-08-31T18:34:06.990Z,5.20
2022-08-31T18:36:39.671Z,5.90
2022-08-31T18:39:09.801Z,5.32
2022-08-31T18:41:56.258Z,5.57
2022-08-31T18:44:56.271Z,5.20
2022-08-31T18:47:30.192Z,4.95
2022-08-31T18:50:04.281Z,5.22
2022-08-31T18:52:44.117Z,5.05
2022-08-31T18:55:17.210Z,5.18
2022-08-31T18:57:48.793Z,5.37
2022-08-31T19:00:18.135Z,5.00
2022-08-31T19:02:46.878Z,5.32
2022-08-31T19:05:15.562Z,5.57
2022-08-31T19:07:46.141Z,5.55
2022-08-31T19:10:15.616Z,5.70
2022-08-31T19:12:43.961Z,5.68
2022-08-31T19:15:12.973Z,5.20
2022-08-31T19:17:43.479Z,5.15
2022-08-31T19:20:12.338Z,5.22
2022-08-31T19:22:41.031Z,5.00
2022-08-31T19:25:13.474Z,4.53
2022-08-31T19:27:52.287Z,5.65
2022-08-31T19:30:27.226Z,5.35
2022-08-31T19:33:01.233Z,5.80
2022-08-31T19:35:29.349Z,5.40
2022-08-31T19:37:57.364Z,5.32
2022-08-31T19:40:36.102Z,5.22
2022-08-31T19:45:53.239Z,5.35
2022-08-31T19:48:24.436Z,6.50
2022-08-31T19:50:53.071Z,5.90
2022-08-31T19:53:21.644Z,5.97
2022-08-31T19:55:51.374Z,5.55
2022-08-31T19:58:20.564Z,5.35
2022-08-31T20:00:49.853Z,5.43
2022-08-31T20:03:20.566Z,6.28
2022-08-31T20:05:48.907Z,4.95
2022-08-31T20:08:17.001Z,6.00
2022-08-31T20:10:46.232Z,5.57
2022-08-31T20:13:14.296Z,5.85
2022-08-31T20:15:43.949Z,5.70
2022-08-31T20:18:15.339Z,5.90
2022-08-31T20:20:46.656Z,6.30
2022-08-31T20:23:18.000Z,5.07
2022-08-31T20:25:46.938Z,5.68
2022-08-31T20:28:15.766Z,5.40
2022-08-31T20:30:44.531Z,5.20
2022-08-31T20:33:13.072Z,5.03
2022-08-31T20:35:48.625Z,4.78
2022-08-31T20:38:17.457Z,5.12
2022-08-31T20:40:46.943Z,4.60
2022-08-31T20:43:15.247Z,4.78
2022-08-31T20:45:43.490Z,4.55
2022-08-31T20:48:30.289Z,4.32
2022-08-31T20:50:58.338Z,4.40
2022-08-31T20:53:42.551Z,4.35
2022-08-31T20:56:17.446Z,4.55
2022-08-31T20:58:47.292Z,4.40
2022-08-31T21:01:17.081Z,4.40
2022-08-31T21:03:44.980Z,4.18
2022-08-31T21:06:14.129Z,4.40
2022-08-31T21:08:43.303Z,4.60
2022-08-31T21:11:12.082Z,4.50
2022-08-31T21:13:39.843Z,5.03
2022-08-31T21:16:07.979Z,5.07
2022-08-31T21:18:35.948Z,4.60
2022-08-31T21:21:09.226Z,4.93
2022-08-31T21:23:37.857Z,4.57
2022-08-31T21:26:06.382Z,4.72
2022-08-31T21:28:35.024Z,4.90
2022-08-31T21:31:15.848Z,4.62
2022-08-31T21:33:46.648Z,4.72
2022-08-31T21:36:18.719Z,4.60
2022-08-31T21:38:48.577Z,4.55
2022-08-31T21:41:18.531Z,4.45
2022-08-31T21:43:46.371Z,4.93
2022-08-31T21:46:16.603Z,5.07
2022-08-31T21:48:45.265Z,4.93
2022-08-31T21:51:22.177Z,4.95
2022-08-31T21:54:03.208Z,4.35
2022-08-31T21:56:32.143Z,4.97
2022-08-31T21:59:00.410Z,5.05
2022-08-31T22:01:29.636Z,5.28
2022-08-31T22:03:58.812Z,5.10
2022-08-31T22:06:31.991Z,5.03
2022-08-31T22:09:06.766Z,4.65
2022-08-31T22:11:38.292Z,4.85
2022-08-31T22:14:08.922Z,4.93
2022-08-31T22:16:38.628Z,4.82
2022-08-31T22:19:11.731Z,5.37
2022-08-31T22:21:39.797Z,5.12
2022-08-31T22:24:09.056Z,4.93
2022-08-31T22:26:38.855Z,6.12
2022-08-31T22:29:07.475Z,5.20
2022-08-31T22:31:38.559Z,5.12
2022-08-31T22:34:10.488Z,5.80
2022-08-31T22:36:38.733Z,5.72
2022-08-31T22:39:11.653Z,4.78
2022-08-31T22:41:40.091Z,5.10
2022-08-31T22:44:09.649Z,5.05
2022-08-31T22:46:37.732Z,5.68
2022-08-31T22:49:06.947Z,5.57
2022-08-31T22:51:36.925Z,6.05
2022-08-31T22:54:05.316Z,5.78
2022-08-31T22:56:34.914Z,5.90
2022-08-31T22:59:05.558Z,5.68
2022-08-31T23:01:38.439Z,5.82
2022-08-31T23:04:07.758Z,5.85
2022-08-31T23:06:36.933Z,5.55
2022-08-31T23:09:06.235Z,5.03
2022-08-31T23:11:33.964Z,6.20
2022-08-31T23:14:07.134Z,5.87
2022-08-31T23:16:38.250Z,5.55
2022-08-31T23:19:20.245Z,5.57
2022-08-31T23:21:53.077Z,5.80
2022-08-31T23:24:42.290Z,5.60
2022-08-31T23:27:12.986Z,5.82
2022-08-31T23:29:48.900Z,5.72
2022-08-31T23:32:18.594Z,5.57
2022-08-31T23:34:47.700Z,5.75
2022-08-31T23:37:15.462Z,5.47
2022-08-31T23:39:44.675Z,5.57
2022-08-31T23:42:13.352Z,5.72
2022-08-31T23:44:44.376Z,5.75
2022-08-31T23:47:22.746Z,6.35
2022-08-31T23:49:52.284Z,6.05
2022-08-31T23:52:22.326Z,6.25
2022-08-31T23:54:51.357Z,6.12
2022-08-31T23:57:32.928Z,6.37
